createdAt,value
2024-01-28T00:01:45.657Z,102212.00
2024-01-28T00:04:15.736Z,102220.00
2024-01-28T00:06:45.289Z,102207.00
2024-01-28T00:09:15.072Z,102209.00
2024-01-28T00:11:45.490Z,102208.00
2024-01-28T00:14:14.345Z,102210.00
2024-01-28T00:16:43.303Z,102215.00
2024-01-28T00:19:12.327Z,102200.00
2024-01-28T00:21:41.186Z,102197.00
2024-01-28T00:24:10.247Z,102200.00
2024-01-28T00:26:42.633Z,102194.00
2024-01-28T00:29:12.797Z,102193.00
2024-01-28T00:31:41.628Z,102205.00
2024-01-28T00:34:10.463Z,102207.00
2024-01-28T00:36:39.409Z,102201.00
2024-01-28T00:39:08.508Z,102215.00
2024-01-28T00:41:38.363Z,102203.00
2024-01-28T00:44:07.552Z,102209.00
2024-01-28T00:46:38.188Z,102200.00
2024-01-28T00:49:07.390Z,102208.00
2024-01-28T00:51:36.377Z,102207.00
2024-01-28T00:54:05.506Z,102202.00
2024-01-28T00:56:35.070Z,102204.00
2024-01-28T00:59:03.849Z,102204.00
2024-01-28T01:01:32.739Z,102201.00
2024-01-28T01:04:03.100Z,102202.00
2024-01-28T01:06:31.997Z,102200.00
2024-01-28T01:09:01.544Z,102195.00
2024-01-28T01:11:30.478Z,102196.00
2024-01-28T01:13:59.417Z,102202.00
2024-01-28T01:16:28.729Z,102197.00
2024-01-28T01:18:57.607Z,102193.00
2024-01-28T01:21:27.815Z,102197.00
2024-01-28T01:23:56.900Z,102195.00
2024-01-28T01:26:25.679Z,102201.00
2024-01-28T01:28:54.495Z,102196.00
2024-01-28T01:31:23.323Z,102190.00
2024-01-28T01:33:52.237Z,102197.00
2024-01-28T01:36:21.059Z,102188.00
2024-01-28T01:38:51.441Z,102200.00
2024-01-28T01:41:20.424Z,102204.00
2024-01-28T01:43:49.315Z,102203.00
2024-01-28T01:46:18.164Z,102206.00
2024-01-28T01:48:47.619Z,102218.00
2024-01-28T01:51:18.082Z,102207.00
2024-01-28T01:53:46.946Z,102212.00
2024-01-28T01:56:17.570Z,102199.00
2024-01-28T01:58:47.517Z,102202.00
2024-01-28T02:01:18.032Z,102193.00
2024-01-28T02:03:46.954Z,102202.00
2024-01-28T02:06:18.326Z,102200.00
2024-01-28T02:08:47.500Z,102192.00
2024-01-28T02:11:17.716Z,102197.00
2024-01-28T02:13:46.489Z,102194.00
2024-01-28T02:16:15.231Z,102205.00
2024-01-28T02:18:44.133Z,102194.00
2024-01-28T02:21:13.220Z,102188.00
2024-01-28T02:23:43.355Z,102195.00
2024-01-28T02:26:12.528Z,102191.00
2024-01-28T02:28:41.264Z,102196.00
2024-01-28T02:31:10.032Z,102190.00
2024-01-28T02:33:39.023Z,102197.00
2024-01-28T02:36:08.706Z,102195.00
2024-01-28T02:38:37.502Z,102194.00
2024-01-28T02:41:07.706Z,102194.00
2024-01-28T02:43:36.996Z,102185.00
2024-01-28T02:46:06.478Z,102184.00
2024-01-28T02:48:35.341Z,102186.00
2024-01-28T02:51:04.436Z,102188.00
2024-01-28T02:53:33.221Z,102192.00
2024-01-28T02:56:02.127Z,102195.00
2024-01-28T02:58:33.542Z,102198.00
2024-01-28T03:01:02.942Z,102192.00
2024-01-28T03:03:31.899Z,102201.00
2024-01-28T03:06:00.736Z,102207.00
2024-01-28T03:08:29.607Z,102198.00
2024-01-28T03:10:58.358Z,102204.00
2024-01-28T03:13:27.200Z,102212.00
2024-01-28T03:15:57.889Z,102204.00
2024-01-28T03:18:26.843Z,102200.00
2024-01-28T03:20:55.633Z,102218.00
2024-01-28T03:23:24.820Z,102212.00
2024-01-28T03:25:53.532Z,102199.00
2024-01-28T03:28:22.302Z,102207.00
2024-01-28T03:30:51.219Z,102204.00
2024-01-28T03:33:21.778Z,102200.00
2024-01-28T03:35:50.646Z,102201.00
2024-01-28T03:38:19.650Z,102184.00
2024-01-28T03:40:48.518Z,102184.00
2024-01-28T03:43:17.424Z,102177.00
2024-01-28T03:45:46.290Z,102179.00
2024-01-28T03:48:15.575Z,102177.00
2024-01-28T03:50:45.871Z,102187.00
2024-01-28T03:53:14.637Z,102184.00
2024-01-28T03:55:44.433Z,102182.00
2024-01-28T03:58:13.581Z,102189.00
2024-01-28T04:00:42.500Z,102177.00
2024-01-28T04:03:11.968Z,102186.00
2024-01-28T04:05:40.827Z,102175.00
2024-01-28T04:08:13.176Z,102177.00
2024-01-28T04:10:42.028Z,102177.00
2024-01-28T04:13:10.866Z,102182.00
2024-01-28T04:15:39.642Z,102186.00
2024-01-28T04:18:08.949Z,102191.00
2024-01-28T04:20:37.828Z,102186.00
2024-01-28T04:23:06.703Z,102190.00
2024-01-28T04:25:36.783Z,102183.00
2024-01-28T04:28:05.748Z,102182.00
2024-01-28T04:30:34.541Z,102174.00
2024-01-28T04:33:03.407Z,102181.00
2024-01-28T04:35:32.169Z,102178.00
2024-01-28T04:38:00.887Z,102174.00
2024-01-28T04:40:29.877Z,102168.00
2024-01-28T04:43:00.080Z,102163.00
2024-01-28T04:45:28.992Z,102158.00
2024-01-28T04:47:57.877Z,102161.00
2024-01-28T04:50:26.908Z,102161.00
2024-01-28T04:52:55.686Z,102155.00
2024-01-28T04:55:24.693Z,102157.00
2024-01-28T04:57:53.507Z,102154.00
2024-01-28T05:00:24.618Z,102151.00
2024-01-28T05:02:56.507Z,102154.00
2024-01-28T05:05:25.387Z,102152.00
2024-01-28T05:07:54.116Z,102154.00
2024-01-28T05:10:23.008Z,102159.00
2024-01-28T05:12:52.046Z,102154.00
2024-01-28T05:15:22.947Z,102155.00
2024-01-28T05:17:51.759Z,102160.00
2024-01-28T05:20:20.579Z,102167.00
2024-01-28T05:22:49.337Z,102164.00
2024-01-28T05:25:18.366Z,102173.00
2024-01-28T05:27:47.151Z,102166.00
2024-01-28T05:30:16.253Z,102165.00
2024-01-28T05:32:46.439Z,102168.00
2024-01-28T05:35:15.232Z,102158.00
2024-01-28T05:37:44.159Z,102165.00
2024-01-28T05:40:14.199Z,102157.00
2024-01-28T05:42:43.612Z,102159.00
2024-01-28T05:45:12.437Z,102163.00
2024-01-28T05:47:41.170Z,102157.00
2024-01-28T05:50:12.486Z,102157.00
2024-01-28T05:52:41.280Z,102155.00
2024-01-28T05:55:10.210Z,102159.00
2024-01-28T05:57:38.976Z,102169.00
2024-01-28T06:00:10.009Z,102156.00
2024-01-28T06:02:39.953Z,102158.00
2024-01-28T06:05:11.600Z,102164.00
2024-01-28T06:07:40.308Z,102170.00
2024-01-28T06:10:09.656Z,102165.00
2024-01-28T06:12:38.509Z,102175.00
2024-01-28T06:15:09.577Z,102175.00
2024-01-28T06:17:40.043Z,102178.00
2024-01-28T06:20:11.412Z,102178.00
2024-01-28T06:22:40.165Z,102179.00
2024-01-28T06:25:10.822Z,102180.00
2024-01-28T06:27:39.692Z,102178.00
2024-01-28T06:30:09.908Z,102177.00
2024-01-28T06:32:38.856Z,102184.00
2024-01-28T06:35:08.670Z,102179.00
2024-01-28T06:37:39.091Z,102190.00
2024-01-28T06:40:09.368Z,102187.00
2024-01-28T06:42:38.183Z,102188.00
2024-01-28T06:45:09.352Z,102202.00
2024-01-28T06:47:38.257Z,102204.00
2024-01-28T06:50:08.142Z,102197.00
2024-01-28T06:52:38.338Z,102196.00
2024-01-28T06:55:08.490Z,102202.00
2024-01-28T06:57:37.423Z,102196.00
2024-01-28T07:00:11.632Z,102200.00
2024-01-28T07:02:40.532Z,102191.00
2024-01-28T07:05:10.781Z,102188.00
2024-01-28T07:07:40.916Z,102189.00
2024-01-28T07:10:10.884Z,102194.00
2024-01-28T07:12:40.745Z,102184.00
2024-01-28T07:15:10.929Z,102188.00
2024-01-28T07:17:39.704Z,102186.00
2024-01-28T07:20:10.021Z,102187.00
2024-01-28T07:22:40.436Z,102186.00
2024-01-28T07:25:09.934Z,102177.00
2024-01-28T07:27:38.707Z,102191.00
2024-01-28T07:30:08.710Z,102191.00
2024-01-28T07:32:37.752Z,102177.00
2024-01-28T07:35:08.319Z,102174.00
2024-01-28T07:37:37.286Z,102174.00
2024-01-28T07:40:08.953Z,102179.00
2024-01-28T07:42:37.702Z,102177.00
2024-01-28T07:45:07.016Z,102179.00
2024-01-28T07:47:36.124Z,102176.00
2024-01-28T07:50:06.526Z,102175.00
2024-01-28T07:52:35.597Z,102173.00
2024-01-28T07:55:04.472Z,102169.00
2024-01-28T07:57:34.704Z,102169.00
2024-01-28T08:00:06.022Z,102173.00
2024-01-28T08:02:34.740Z,102174.00
2024-01-28T08:05:03.502Z,102167.00
2024-01-28T08:07:32.305Z,102167.00
2024-01-28T08:10:01.084Z,102173.00
2024-01-28T08:12:29.880Z,102169.00
2024-01-28T08:15:00.490Z,102166.00
2024-01-28T08:17:29.354Z,102165.00
2024-01-28T08:19:58.735Z,102173.00
2024-01-28T08:22:27.593Z,102176.00
2024-01-28T08:24:56.480Z,102168.00
2024-01-28T08:27:25.451Z,102169.00
2024-01-28T08:29:54.267Z,102165.00
2024-01-28T08:32:24.564Z,102164.00
2024-01-28T08:34:53.732Z,102173.00
2024-01-28T08:37:23.928Z,102169.00
2024-01-28T08:39:52.815Z,102166.00
2024-01-28T08:42:22.994Z,102165.00
2024-01-28T08:44:51.977Z,102158.00
2024-01-28T08:47:20.844Z,102161.00
2024-01-28T08:49:51.956Z,102166.00
2024-01-28T08:52:21.450Z,102163.00
2024-01-28T08:54:50.399Z,102170.00
2024-01-28T08:57:20.028Z,102166.00
2024-01-28T08:59:48.848Z,102165.00
2024-01-28T09:02:17.577Z,102161.00
2024-01-28T09:04:46.583Z,102158.00
2024-01-28T09:07:16.840Z,102166.00
2024-01-28T09:09:45.907Z,102162.00
2024-01-28T09:12:14.773Z,102166.00
2024-01-28T09:14:43.862Z,102172.00
2024-01-28T09:17:13.047Z,102170.00
2024-01-28T09:19:41.905Z,102164.00
2024-01-28T09:22:10.709Z,102174.00
2024-01-28T09:24:41.125Z,102175.00
2024-01-28T09:27:10.079Z,102170.00
2024-01-28T09:29:40.359Z,102189.00
2024-01-28T09:32:09.628Z,102168.00
2024-01-28T09:34:38.522Z,102187.00
2024-01-28T09:37:08.795Z,102175.00
2024-01-28T09:39:37.671Z,102181.00
2024-01-28T09:42:14.356Z,102178.00
2024-01-28T09:44:43.156Z,102188.00
2024-01-28T09:47:12.511Z,102193.00
2024-01-28T09:49:44.174Z,102191.00
2024-01-28T09:52:14.237Z,102198.00
2024-01-28T09:54:45.840Z,102189.00
2024-01-28T09:57:17.593Z,102178.00
2024-01-28T09:59:47.537Z,102177.00
2024-01-28T10:02:18.866Z,102174.00
2024-01-28T10:04:48.139Z,102167.00
2024-01-28T10:07:17.317Z,102151.00
2024-01-28T10:09:46.900Z,102144.00
2024-01-28T10:12:17.126Z,102144.00
2024-01-28T10:14:52.559Z,102150.00
2024-01-28T10:17:24.268Z,102140.00
2024-01-28T10:19:53.199Z,102143.00
2024-01-28T10:22:21.923Z,102137.00
2024-01-28T10:24:51.679Z,102136.00
2024-01-28T10:27:22.561Z,102146.00
2024-01-28T10:29:51.677Z,102154.00
2024-01-28T10:32:20.398Z,102145.00
2024-01-28T10:34:49.364Z,102144.00
2024-01-28T10:37:19.704Z,102152.00
2024-01-28T10:39:52.943Z,102152.00
2024-01-28T10:42:24.088Z,102140.00
2024-01-28T10:44:58.890Z,102153.00
2024-01-28T10:47:32.138Z,102144.00
2024-01-28T10:50:04.535Z,102137.00
2024-01-28T10:52:34.640Z,102138.00
2024-01-28T10:55:03.927Z,102119.00
2024-01-28T10:57:34.872Z,102129.00
2024-01-28T11:00:06.297Z,102117.00
2024-01-28T11:02:35.818Z,102108.00
2024-01-28T11:05:05.194Z,102102.00
2024-01-28T11:07:34.459Z,102106.00
2024-01-28T11:10:03.634Z,102103.00
2024-01-28T11:12:36.202Z,102099.00
2024-01-28T11:15:05.247Z,102087.00
2024-01-28T11:17:35.209Z,102086.00
2024-01-28T11:20:10.775Z,102080.00
2024-01-28T11:22:50.245Z,102077.00
2024-01-28T11:25:21.831Z,102080.00
2024-01-28T11:27:53.679Z,102070.00
2024-01-28T11:30:23.824Z,102071.00
2024-01-28T11:32:53.971Z,102083.00
2024-01-28T11:35:24.686Z,102072.00
2024-01-28T11:37:57.151Z,102076.00
2024-01-28T11:40:31.202Z,102065.00
2024-01-28T11:43:01.767Z,102067.00
2024-01-28T11:45:31.161Z,102067.00
2024-01-28T11:48:00.240Z,102074.00
2024-01-28T11:50:29.079Z,102070.00
2024-01-28T11:52:57.958Z,102063.00
2024-01-28T11:55:26.758Z,102049.00
2024-01-28T11:57:56.381Z,102043.00
2024-01-28T12:00:27.929Z,102041.00
2024-01-28T12:02:56.944Z,102036.00
2024-01-28T12:05:25.911Z,102035.00
2024-01-28T12:07:57.117Z,102038.00
2024-01-28T12:10:26.172Z,102030.00
2024-01-28T12:12:59.769Z,102033.00
2024-01-28T12:15:30.033Z,102031.00
2024-01-28T12:18:00.157Z,102028.00
2024-01-28T12:20:29.164Z,102022.00
2024-01-28T12:22:57.984Z,102031.00
2024-01-28T12:25:26.795Z,102023.00
2024-01-28T12:27:56.364Z,102017.00
2024-01-28T12:30:25.795Z,102031.00
2024-01-28T12:32:57.195Z,102025.00
2024-01-28T12:35:26.137Z,102017.00
2024-01-28T12:37:54.907Z,102018.00
2024-01-28T12:40:23.713Z,102020.00
2024-01-28T12:42:52.795Z,102022.00
2024-01-28T12:45:22.546Z,102018.00
2024-01-28T12:47:51.342Z,102018.00
2024-01-28T12:50:21.977Z,102019.00
2024-01-28T12:52:50.744Z,102009.00
2024-01-28T12:55:19.728Z,102013.00
2024-01-28T12:57:48.584Z,102009.00
2024-01-28T13:00:19.764Z,102009.00
2024-01-28T13:02:50.118Z,101996.00
2024-01-28T13:05:20.864Z,101985.00
2024-01-28T13:07:49.649Z,101989.00
2024-01-28T13:10:18.655Z,101985.00
2024-01-28T13:12:47.484Z,101978.00
2024-01-28T13:15:16.401Z,101981.00
2024-01-28T13:17:45.531Z,101974.00
2024-01-28T13:20:14.885Z,101974.00
2024-01-28T13:22:46.157Z,101969.00
2024-01-28T13:25:16.462Z,101968.00
2024-01-28T13:27:45.460Z,101971.00
2024-01-28T13:30:15.031Z,101965.00
2024-01-28T13:32:47.503Z,101971.00
2024-01-28T13:35:16.614Z,101971.00
2024-01-28T13:37:46.893Z,101959.00
2024-01-28T13:40:15.605Z,101966.00
2024-01-28T13:42:44.290Z,101956.00
2024-01-28T13:45:13.505Z,101957.00
2024-01-28T13:47:45.064Z,101964.00
2024-01-28T13:50:14.005Z,101962.00
2024-01-28T13:52:42.854Z,101970.00
2024-01-28T13:55:13.052Z,101976.00
2024-01-28T13:57:41.909Z,101970.00
2024-01-28T14:00:12.506Z,101965.00
2024-01-28T14:02:43.257Z,101967.00
2024-01-28T14:05:13.828Z,101963.00
2024-01-28T14:07:43.023Z,101969.00
2024-01-28T14:10:13.719Z,101967.00
2024-01-28T14:12:42.590Z,101970.00
2024-01-28T14:15:12.001Z,101972.00
2024-01-28T14:17:41.198Z,101964.00
2024-01-28T14:20:11.224Z,101967.00
2024-01-28T14:22:40.030Z,101962.00
2024-01-28T14:25:09.479Z,101960.00
2024-01-28T14:27:39.633Z,101964.00
2024-01-28T14:30:09.526Z,101968.00
2024-01-28T14:32:38.340Z,101956.00
2024-01-28T14:35:07.961Z,101955.00
2024-01-28T14:37:36.844Z,101944.00
2024-01-28T14:40:07.763Z,101956.00
2024-01-28T14:42:36.831Z,101954.00
2024-01-28T14:45:08.201Z,101957.00
2024-01-28T14:47:37.209Z,101953.00
2024-01-28T14:50:06.556Z,101947.00
2024-01-28T14:52:35.315Z,101943.00
2024-01-28T14:55:05.077Z,101955.00
2024-01-28T14:57:35.229Z,101937.00
2024-01-28T15:00:05.532Z,101942.00
2024-01-28T15:02:35.781Z,101938.00
2024-01-28T15:05:06.640Z,101932.00
2024-01-28T15:07:35.484Z,101942.00
2024-01-28T15:10:04.842Z,101935.00
2024-01-28T15:12:33.676Z,101935.00
2024-01-28T15:15:02.400Z,101942.00
2024-01-28T15:17:31.227Z,101937.00
2024-01-28T15:20:01.626Z,101947.00
2024-01-28T15:22:30.526Z,101945.00
2024-01-28T15:25:00.568Z,101942.00
2024-01-28T15:27:30.468Z,101944.00
2024-01-28T15:29:59.275Z,101941.00
2024-01-28T15:32:28.066Z,101933.00
2024-01-28T15:34:57.381Z,101929.00
2024-01-28T15:37:28.180Z,101933.00
2024-01-28T15:39:57.544Z,101936.00
2024-01-28T15:42:26.433Z,101932.00
2024-01-28T15:44:57.798Z,101937.00
2024-01-28T15:47:27.199Z,101936.00
2024-01-28T15:49:56.348Z,101932.00
2024-01-28T15:52:25.476Z,101926.00
2024-01-28T15:54:55.651Z,101926.00
2024-01-28T15:57:24.771Z,101933.00
2024-01-28T16:00:04.509Z,101934.00
2024-01-28T16:02:36.398Z,101925.00
2024-01-28T16:05:05.484Z,101926.00
2024-01-28T16:07:34.411Z,101928.00
2024-01-28T16:10:04.712Z,101916.00
2024-01-28T16:12:33.745Z,101922.00
2024-01-28T16:15:03.533Z,101916.00
2024-01-28T16:17:32.417Z,101915.00
2024-01-28T16:20:01.286Z,101916.00
2024-01-28T16:22:30.884Z,101918.00
2024-01-28T16:24:59.763Z,101918.00
2024-01-28T16:27:30.071Z,101918.00
2024-01-28T16:29:58.761Z,101923.00
2024-01-28T16:32:27.474Z,101922.00
2024-01-28T16:34:56.691Z,101929.00
2024-01-28T16:37:26.287Z,101922.00
2024-01-28T16:39:55.039Z,101923.00
2024-01-28T16:42:24.626Z,101915.00
2024-01-28T16:44:54.658Z,101920.00
2024-01-28T16:47:23.414Z,101916.00
2024-01-28T16:49:52.387Z,101915.00
2024-01-28T16:52:21.970Z,101900.00
2024-01-28T16:54:50.933Z,101914.00
2024-01-28T16:57:20.036Z,101915.00
2024-01-28T16:59:48.774Z,101918.00
2024-01-28T17:02:19.274Z,101918.00
2024-01-28T17:04:48.046Z,101919.00
2024-01-28T17:07:16.834Z,101932.00
2024-01-28T17:09:45.611Z,101935.00
2024-01-28T17:12:14.380Z,101930.00
2024-01-28T17:14:44.300Z,101936.00
2024-01-28T17:17:13.208Z,101936.00
2024-01-28T17:19:43.393Z,101936.00
2024-01-28T17:22:12.139Z,101940.00
2024-01-28T17:24:41.024Z,101946.00
2024-01-28T17:27:11.114Z,101945.00
2024-01-28T17:29:39.855Z,101939.00
2024-01-28T17:32:09.670Z,101942.00
2024-01-28T17:34:38.900Z,101944.00
2024-01-28T17:37:09.469Z,101933.00
2024-01-28T17:39:38.327Z,101929.00
2024-01-28T17:42:12.614Z,101928.00
2024-01-28T17:44:41.399Z,101925.00
2024-01-28T17:47:11.246Z,101932.00
2024-01-28T17:49:40.407Z,101937.00
2024-01-28T17:52:13.035Z,101924.00
2024-01-28T17:54:42.251Z,101922.00
2024-01-28T17:57:11.057Z,101917.00
2024-01-28T17:59:39.837Z,101929.00
2024-01-28T18:02:08.614Z,101934.00
2024-01-28T18:04:37.646Z,101932.00
2024-01-28T18:07:07.005Z,101934.00
2024-01-28T18:09:38.465Z,101929.00
2024-01-28T18:12:08.513Z,101929.00
2024-01-28T18:14:37.410Z,101927.00
2024-01-28T18:17:06.637Z,101927.00
2024-01-28T18:19:35.786Z,101930.00
2024-01-28T18:22:04.802Z,101925.00
2024-01-28T18:24:34.975Z,101923.00
2024-01-28T18:27:05.434Z,101922.00
2024-01-28T18:29:34.349Z,101928.00
2024-01-28T18:32:03.445Z,101923.00
2024-01-28T18:34:33.686Z,101929.00
2024-01-28T18:37:02.829Z,101923.00
2024-01-28T18:39:32.440Z,101928.00
2024-01-28T18:42:01.256Z,101917.00
2024-01-28T18:44:31.620Z,101924.00
2024-01-28T18:47:00.354Z,101922.00
2024-01-28T18:49:29.297Z,101919.00
2024-01-28T18:51:59.226Z,101931.00
2024-01-28T18:54:28.233Z,101939.00
2024-01-28T18:56:57.299Z,101930.00
2024-01-28T18:59:26.045Z,101921.00
2024-01-28T19:01:56.364Z,101917.00
2024-01-28T19:04:25.378Z,101926.00
2024-01-28T19:06:54.732Z,101920.00
2024-01-28T19:09:23.584Z,101911.00
2024-01-28T19:11:52.489Z,101914.00
2024-01-28T19:14:22.560Z,101912.00
2024-01-28T19:16:55.707Z,101905.00
2024-01-28T19:19:26.820Z,101916.00
2024-01-28T19:21:55.777Z,101907.00
2024-01-28T19:24:24.862Z,101913.00
2024-01-28T19:26:53.704Z,101918.00
2024-01-28T19:29:22.482Z,101902.00
2024-01-28T19:31:51.327Z,101897.00
2024-01-28T19:34:20.175Z,101904.00
2024-01-28T19:36:50.435Z,101909.00
2024-01-28T19:39:25.096Z,101894.00
2024-01-28T19:41:54.253Z,101902.00
2024-01-28T19:44:23.061Z,101894.00
2024-01-28T19:46:51.912Z,101900.00
2024-01-28T19:49:21.008Z,101894.00
2024-01-28T19:51:51.370Z,101887.00
2024-01-28T19:54:22.212Z,101899.00
2024-01-28T19:56:51.269Z,101904.00
2024-01-28T19:59:21.079Z,101901.00
2024-01-28T20:01:51.713Z,101911.00
2024-01-28T20:04:20.827Z,101916.00
2024-01-28T20:06:51.713Z,101903.00
2024-01-28T20:09:20.554Z,101909.00
2024-01-28T20:11:49.536Z,101902.00
2024-01-28T20:14:18.378Z,101899.00
2024-01-28T20:16:47.187Z,101901.00
2024-01-28T20:19:20.721Z,101890.00
2024-01-28T20:21:54.449Z,101890.00
2024-01-28T20:24:23.450Z,101891.00
2024-01-28T20:26:52.294Z,101887.00
2024-01-28T20:29:23.964Z,101878.00
2024-01-28T20:31:52.752Z,101889.00
2024-01-28T20:34:23.546Z,101882.00
2024-01-28T20:36:53.874Z,101885.00
2024-01-28T20:39:23.406Z,101876.00
2024-01-28T20:41:52.541Z,101882.00
2024-01-28T20:44:25.001Z,101881.00
2024-01-28T20:46:54.111Z,101889.00
2024-01-28T20:49:23.300Z,101877.00
2024-01-28T20:51:53.563Z,101876.00
2024-01-28T20:54:22.404Z,101863.00
2024-01-28T20:56:51.502Z,101861.00
2024-01-28T20:59:20.424Z,101871.00
2024-01-28T21:01:49.312Z,101874.00
2024-01-28T21:04:18.284Z,101885.00
2024-01-28T21:06:47.163Z,101879.00
2024-01-28T21:09:17.473Z,101876.00
2024-01-28T21:11:46.271Z,101881.00
2024-01-28T21:14:17.122Z,101873.00
2024-01-28T21:16:46.088Z,101869.00
2024-01-28T21:19:15.323Z,101870.00
2024-01-28T21:21:44.602Z,101872.00
2024-01-28T21:24:13.916Z,101870.00
2024-01-28T21:26:44.023Z,101861.00
2024-01-28T21:29:13.215Z,101865.00
2024-01-28T21:31:42.425Z,101852.00
2024-01-28T21:34:12.367Z,101855.00
2024-01-28T21:36:41.298Z,101848.00
2024-01-28T21:39:10.179Z,101857.00
2024-01-28T21:41:39.355Z,101853.00
2024-01-28T21:44:09.925Z,101849.00
2024-01-28T21:46:38.793Z,101846.00
2024-01-28T21:49:07.904Z,101849.00
2024-01-28T21:51:37.550Z,101861.00
2024-01-28T21:54:06.783Z,101857.00
2024-01-28T21:56:35.599Z,101855.00
2024-01-28T21:59:04.701Z,101856.00
2024-01-28T22:01:35.019Z,101858.00
2024-01-28T22:04:03.888Z,101848.00
2024-01-28T22:06:32.855Z,101859.00
2024-01-28T22:09:01.814Z,101861.00
2024-01-28T22:11:30.727Z,101864.00
2024-01-28T22:13:59.526Z,101860.00
2024-01-28T22:16:28.467Z,101849.00
2024-01-28T22:18:58.699Z,101848.00
2024-01-28T22:21:27.913Z,101846.00
2024-01-28T22:23:56.837Z,101852.00
2024-01-28T22:26:25.665Z,101851.00
2024-01-28T22:28:54.679Z,101854.00
2024-01-28T22:31:23.379Z,101856.00
2024-01-28T22:33:52.929Z,101849.00
2024-01-28T22:36:23.144Z,101838.00
2024-01-28T22:38:51.943Z,101835.00
2024-01-28T22:41:20.685Z,101837.00
2024-01-28T22:43:49.441Z,101840.00
2024-01-28T22:46:18.228Z,101834.00
2024-01-28T22:48:47.249Z,101838.00
2024-01-28T22:51:16.342Z,101845.00
2024-01-28T22:53:46.558Z,101837.00
2024-01-28T22:56:15.312Z,101840.00
2024-01-28T22:58:44.086Z,101843.00
2024-01-28T23:01:14.112Z,101836.00
2024-01-28T23:03:44.473Z,101829.00
2024-01-28T23:06:18.701Z,101829.00
2024-01-28T23:08:49.263Z,101849.00
2024-01-28T23:11:18.110Z,101838.00
2024-01-28T23:13:47.482Z,101838.00
2024-01-28T23:16:16.879Z,101824.00
2024-01-28T23:18:45.853Z,101823.00
2024-01-28T23:21:15.072Z,101824.00
2024-01-28T23:23:44.509Z,101826.00
2024-01-28T23:26:14.659Z,101821.00
2024-01-28T23:28:43.416Z,101823.00
2024-01-28T23:31:12.191Z,101811.00
2024-01-28T23:33:40.206Z,101816.00
2024-01-28T23:36:09.789Z,101801.00
2024-01-28T23:38:39.282Z,101803.00
2024-01-28T23:41:08.038Z,101801.00
2024-01-28T23:43:38.167Z,101808.00
2024-01-28T23:46:06.922Z,101807.00
2024-01-28T23:48:38.557Z,101798.00
2024-01-28T23:51:07.521Z,101803.00
2024-01-28T23:53:36.276Z,101791.00
2024-01-28T23:56:05.372Z,101798.00
2024-01-28T23:58:34.143Z,101798.00
